createdAt,value
2018-11-26T00:00:21.839Z,26.97
2018-11-26T00:02:51.102Z,21.90
2018-11-26T00:05:19.920Z,20.15
2018-11-26T00:07:48.712Z,24.85
2018-11-26T00:10:28.423Z,22.15
2018-11-26T00:12:57.325Z,20.27
2018-11-26T00:15:26.287Z,19.15
2018-11-26T00:17:55.323Z,20.15
2018-11-26T00:20:24.168Z,17.52
2018-11-26T00:22:53.080Z,20.05
2018-11-26T00:25:21.956Z,18.75
2018-11-26T00:27:50.757Z,19.62
2018-11-26T00:30:19.651Z,15.90
2018-11-26T00:32:48.566Z,21.12
2018-11-26T00:35:17.483Z,21.60
2018-11-26T00:37:46.349Z,18.70
2018-11-26T00:40:15.162Z,17.62
2018-11-26T00:42:43.978Z,20.40
2018-11-26T00:45:13.095Z,18.75
2018-11-26T00:47:41.889Z,18.57
2018-11-26T00:50:11.319Z,18.23
2018-11-26T00:52:41.005Z,17.40
2018-11-26T00:55:11.094Z,14.38
2018-11-26T00:57:40.014Z,17.60
2018-11-26T01:00:11.606Z,14.85
2018-11-26T01:02:40.480Z,17.15
2018-11-26T01:05:14.262Z,16.85
2018-11-26T01:07:43.090Z,12.95
2018-11-26T01:10:11.901Z,17.40
2018-11-26T01:12:40.838Z,13.00
2018-11-26T01:15:09.699Z,12.63
2018-11-26T01:17:38.531Z,14.98
2018-11-26T01:20:07.395Z,17.98
2018-11-26T01:22:36.232Z,12.93
2018-11-26T01:25:05.075Z,15.40
2018-11-26T01:27:33.883Z,14.35
2018-11-26T01:30:02.589Z,11.43
2018-11-26T01:32:31.376Z,20.00
2018-11-26T01:35:00.209Z,19.77
2018-11-26T01:37:29.006Z,13.62
2018-11-26T01:39:57.905Z,13.60
2018-11-26T01:42:26.703Z,15.00
2018-11-26T01:44:55.493Z,16.95
2018-11-26T01:47:24.248Z,13.58
2018-11-26T01:49:53.077Z,18.85
2018-11-26T01:52:21.822Z,19.07
2018-11-26T01:54:50.734Z,15.45
2018-11-26T01:57:19.625Z,17.85
2018-11-26T01:59:48.450Z,16.57
2018-11-26T02:02:17.264Z,15.93
2018-11-26T02:04:46.146Z,21.55
2018-11-26T02:07:14.917Z,17.25
2018-11-26T02:09:43.794Z,18.57
2018-11-26T02:12:12.620Z,19.75
2018-11-26T02:14:43.967Z,17.65
2018-11-26T02:17:13.509Z,18.67
2018-11-26T02:19:43.042Z,16.82
2018-11-26T02:22:12.494Z,16.02
2018-11-26T02:24:41.809Z,19.32
2018-11-26T02:27:12.147Z,17.62
2018-11-26T02:29:41.704Z,19.98
2018-11-26T02:32:11.228Z,18.30
2018-11-26T02:34:40.815Z,23.90
2018-11-26T02:37:09.710Z,16.00
2018-11-26T02:39:38.525Z,20.82
2018-11-26T02:42:07.379Z,17.87
2018-11-26T02:44:36.193Z,17.02
2018-11-26T02:47:05.080Z,19.37
2018-11-26T02:49:33.948Z,20.12
2018-11-26T02:52:02.746Z,21.45
2018-11-26T02:54:31.491Z,26.60
2018-11-26T02:57:00.338Z,17.82
2018-11-26T02:59:29.074Z,15.78
2018-11-26T03:01:57.890Z,20.40
2018-11-26T03:04:26.666Z,19.85
2018-11-26T03:06:55.438Z,26.33
2018-11-26T03:09:24.276Z,22.75
2018-11-26T03:11:53.226Z,22.60
2018-11-26T03:14:22.034Z,27.58
2018-11-26T03:16:50.950Z,21.62
2018-11-26T03:19:19.753Z,21.50
2018-11-26T03:21:48.684Z,22.82
2018-11-26T03:24:17.495Z,22.42
2018-11-26T03:26:46.342Z,24.30
2018-11-26T03:29:15.178Z,22.13
2018-11-26T03:31:44.039Z,24.75
2018-11-26T03:34:12.910Z,25.60
2018-11-26T03:36:41.759Z,24.35
2018-11-26T03:39:10.664Z,28.20
2018-11-26T03:41:39.455Z,25.27
2018-11-26T03:44:08.230Z,28.15
2018-11-26T03:46:37.019Z,26.70
2018-11-26T03:49:06.065Z,27.90
2018-11-26T03:51:34.938Z,26.10
2018-11-26T03:54:03.824Z,31.45
2018-11-26T03:56:32.706Z,27.13
2018-11-26T03:59:01.880Z,28.60
2018-11-26T04:01:30.707Z,25.82
2018-11-26T04:03:59.494Z,25.27
2018-11-26T04:06:28.324Z,32.95
2018-11-26T04:08:57.370Z,32.55
2018-11-26T04:11:26.185Z,39.63
2018-11-26T04:13:55.027Z,31.50
2018-11-26T04:16:23.859Z,27.20
2018-11-26T04:18:52.661Z,30.55
2018-11-26T04:21:21.500Z,28.35
2018-11-26T04:23:50.267Z,29.48
2018-11-26T04:26:18.999Z,28.15
2018-11-26T04:28:47.866Z,25.52
2018-11-26T04:31:16.613Z,40.73
2018-11-26T04:33:45.612Z,27.55
2018-11-26T04:36:14.459Z,26.10
2018-11-26T04:38:43.766Z,28.05
2018-11-26T04:41:12.594Z,24.65
2018-11-26T04:43:41.408Z,28.95
2018-11-26T04:46:10.212Z,27.35
2018-11-26T04:48:39.070Z,31.10
2018-11-26T04:51:07.913Z,25.08
2018-11-26T04:53:36.758Z,27.80
2018-11-26T04:56:05.868Z,24.50
2018-11-26T04:58:34.693Z,22.27
2018-11-26T05:01:03.563Z,25.57
2018-11-26T05:03:32.448Z,29.32
2018-11-26T05:06:01.316Z,28.92
2018-11-26T05:08:30.094Z,27.55
2018-11-26T05:10:59.928Z,26.48
2018-11-26T05:13:29.457Z,27.73
2018-11-26T05:15:58.382Z,32.00
2018-11-26T05:18:27.418Z,30.80
2018-11-26T05:20:56.300Z,28.17
2018-11-26T05:23:25.315Z,26.90
2018-11-26T05:25:54.616Z,26.60
2018-11-26T05:28:23.434Z,23.42
2018-11-26T05:30:52.385Z,28.35
2018-11-26T05:33:21.365Z,33.65
2018-11-26T05:35:50.947Z,27.13
2018-11-26T05:38:20.191Z,31.85
2018-11-26T05:40:49.032Z,28.95
2018-11-26T05:43:17.811Z,33.58
2018-11-26T05:45:46.898Z,27.25
2018-11-26T05:48:15.697Z,27.62
2018-11-26T05:50:44.579Z,33.28
2018-11-26T05:53:13.327Z,26.37
2018-11-26T05:55:42.206Z,33.80
2018-11-26T05:58:11.110Z,31.45
2018-11-26T06:00:39.942Z,30.12
2018-11-26T06:03:08.764Z,29.35
2018-11-26T06:05:37.836Z,32.13
2018-11-26T06:08:06.681Z,32.13
2018-11-26T06:10:35.556Z,35.05
2018-11-26T06:13:04.445Z,31.45
2018-11-26T06:15:33.364Z,38.53
2018-11-26T06:18:02.311Z,32.30
2018-11-26T06:20:31.234Z,35.92
2018-11-26T06:23:00.227Z,35.50
2018-11-26T06:25:29.182Z,32.25
2018-11-26T06:27:58.053Z,31.65
2018-11-26T06:30:49.108Z,38.58
2018-11-26T06:33:20.817Z,40.85
2018-11-26T06:35:49.802Z,29.63
2018-11-26T06:38:19.308Z,32.10
2018-11-26T06:40:48.118Z,39.25
2018-11-26T06:43:17.467Z,34.38
2018-11-26T06:45:46.070Z,34.73
2018-11-26T06:48:14.879Z,31.82
2018-11-26T06:50:43.686Z,39.70
2018-11-26T06:53:18.814Z,29.02
2018-11-26T06:55:47.826Z,32.53
2018-11-26T06:58:16.602Z,39.75
2018-11-26T07:00:45.476Z,33.10
2018-11-26T07:03:14.225Z,33.98
2018-11-26T07:05:43.156Z,30.68
2018-11-26T07:08:12.019Z,31.93
2018-11-26T07:10:40.867Z,32.35
2018-11-26T07:13:09.710Z,30.82
2018-11-26T07:15:39.227Z,32.83
2018-11-26T07:18:08.846Z,36.68
2018-11-26T07:20:37.718Z,34.08
2018-11-26T07:23:06.625Z,34.40
2018-11-26T07:25:35.523Z,36.63
2018-11-26T07:28:06.841Z,34.83
2018-11-26T07:30:35.843Z,39.90
2018-11-26T07:33:05.353Z,37.15
2018-11-26T07:35:34.420Z,39.35
2018-11-26T07:38:03.322Z,33.63
2018-11-26T07:40:32.346Z,38.88
2018-11-26T07:43:06.598Z,31.55
2018-11-26T07:45:35.593Z,36.60
2018-11-26T07:48:04.721Z,35.80
2018-11-26T07:50:35.501Z,41.05
2018-11-26T07:53:04.756Z,33.50
2018-11-26T07:55:33.784Z,39.00
2018-11-26T07:58:02.873Z,34.85
2018-11-26T08:00:33.005Z,38.95
2018-11-26T08:03:02.044Z,36.38
2018-11-26T08:05:32.197Z,35.73
2018-11-26T08:08:02.380Z,36.15
2018-11-26T08:10:31.864Z,35.80
2018-11-26T08:13:00.963Z,30.92
2018-11-26T08:15:30.340Z,38.25
2018-11-26T08:17:59.512Z,39.65
2018-11-26T08:20:28.595Z,33.83
2018-11-26T08:22:58.015Z,39.27
2018-11-26T08:25:27.037Z,42.30
2018-11-26T08:27:56.010Z,55.20
2018-11-26T08:30:26.961Z,36.80
2018-11-26T08:32:57.889Z,34.38
2018-11-26T08:35:27.703Z,39.50
2018-11-26T08:38:01.754Z,40.10
2018-11-26T08:40:35.138Z,41.33
2018-11-26T08:43:07.340Z,38.90
2018-11-26T08:45:37.679Z,37.73
2018-11-26T08:48:12.387Z,39.48
2018-11-26T08:50:42.420Z,39.78
2018-11-26T08:53:11.601Z,44.73
2018-11-26T08:55:40.813Z,38.00
2018-11-26T08:58:10.831Z,42.50
2018-11-26T09:00:41.736Z,41.37
2018-11-26T09:03:20.491Z,41.10
2018-11-26T09:05:54.895Z,54.60
2018-11-26T09:08:23.758Z,39.63
2018-11-26T09:10:56.441Z,39.58
2018-11-26T09:13:25.420Z,42.33
2018-11-26T09:15:54.607Z,46.68
2018-11-26T09:18:24.635Z,39.58
2018-11-26T09:20:53.701Z,38.05
2018-11-26T09:23:22.761Z,51.88
2018-11-26T09:25:55.178Z,38.15
2018-11-26T09:28:26.320Z,44.48
2018-11-26T09:30:55.376Z,40.92
2018-11-26T09:33:24.389Z,38.75
2018-11-26T09:35:53.285Z,42.88
2018-11-26T09:38:22.351Z,44.65
2018-11-26T09:40:51.389Z,41.65
2018-11-26T09:43:20.263Z,39.20
2018-11-26T09:45:49.287Z,47.10
2018-11-26T09:48:18.254Z,42.50
2018-11-26T09:50:47.330Z,45.60
2018-11-26T09:53:16.501Z,42.85
2018-11-26T09:55:45.398Z,47.17
2018-11-26T09:58:14.436Z,46.40
2018-11-26T10:00:43.351Z,42.05
2018-11-26T10:03:12.467Z,41.15
2018-11-26T10:05:41.304Z,40.75
2018-11-26T10:08:10.210Z,41.20
2018-11-26T10:10:39.086Z,42.58
2018-11-26T10:13:08.226Z,41.63
2018-11-26T10:15:37.209Z,42.85
2018-11-26T10:18:06.337Z,39.78
2018-11-26T10:20:36.682Z,45.83
2018-11-26T10:23:06.380Z,38.73
2018-11-26T10:25:35.388Z,42.88
2018-11-26T10:28:04.481Z,43.05
2018-11-26T10:30:33.320Z,40.48
2018-11-26T10:33:02.559Z,45.10
2018-11-26T10:35:31.778Z,41.83
2018-11-26T10:38:01.468Z,42.80
2018-11-26T10:40:30.842Z,43.70
2018-11-26T10:42:59.817Z,48.92
2018-11-26T10:45:28.821Z,39.10
2018-11-26T10:47:57.916Z,37.13
2018-11-26T10:50:27.342Z,43.50
2018-11-26T10:52:57.665Z,47.85
2018-11-26T10:55:29.348Z,41.68
2018-11-26T10:57:58.450Z,44.73
2018-11-26T11:00:32.848Z,49.15
2018-11-26T11:03:01.962Z,49.55
2018-11-26T11:05:31.006Z,40.05
2018-11-26T11:08:00.119Z,35.80
2018-11-26T11:10:30.332Z,45.88
2018-11-26T11:12:59.434Z,39.27
2018-11-26T11:15:28.463Z,38.78
2018-11-26T11:17:57.522Z,47.45
2018-11-26T11:20:27.932Z,44.18
2018-11-26T11:22:56.832Z,43.85
2018-11-26T11:25:26.229Z,44.85
2018-11-26T11:27:56.318Z,34.88
2018-11-26T11:30:26.733Z,40.03
2018-11-26T11:32:55.773Z,50.55
2018-11-26T11:35:24.625Z,42.67
2018-11-26T11:37:54.291Z,50.03
2018-11-26T11:40:31.823Z,45.73
2018-11-26T11:43:01.325Z,43.45
2018-11-26T11:45:31.333Z,37.48
2018-11-26T11:48:00.433Z,40.90
2018-11-26T11:50:29.495Z,45.50
2018-11-26T11:52:59.391Z,50.65
2018-11-26T11:55:28.454Z,42.43
2018-11-26T11:57:57.420Z,46.63
2018-11-26T12:00:38.985Z,61.55
2018-11-26T12:03:09.206Z,40.52
2018-11-26T12:05:38.197Z,43.23
2018-11-26T12:08:08.136Z,42.38
2018-11-26T12:10:37.717Z,47.45
2018-11-26T12:13:08.545Z,47.03
2018-11-26T12:15:39.817Z,44.30
2018-11-26T12:18:09.279Z,45.92
2018-11-26T12:20:39.185Z,42.55
2018-11-26T12:23:08.843Z,42.70
2018-11-26T12:25:38.006Z,50.23
2018-11-26T12:28:07.407Z,57.05
2018-11-26T12:30:38.615Z,56.83
2018-11-26T12:33:07.743Z,74.70
2018-11-26T12:35:39.533Z,52.50
2018-11-26T12:38:09.627Z,53.20
2018-11-26T12:40:38.908Z,47.73
2018-11-26T12:43:08.585Z,47.25
2018-11-26T12:45:40.789Z,48.87
2018-11-26T12:48:10.432Z,48.05
2018-11-26T12:50:40.043Z,47.13
2018-11-26T12:53:09.571Z,49.73
2018-11-26T12:55:44.029Z,43.85
2018-11-26T12:58:13.084Z,46.20
2018-11-26T13:00:42.695Z,43.13
2018-11-26T13:03:13.642Z,53.70
2018-11-26T13:05:42.631Z,50.43
2018-11-26T13:08:11.777Z,46.08
2018-11-26T13:10:40.747Z,46.83
2018-11-26T13:13:10.754Z,39.85
2018-11-26T13:15:39.715Z,46.05
2018-11-26T13:18:11.546Z,45.95
2018-11-26T13:20:40.666Z,45.90
2018-11-26T13:23:11.372Z,39.55
2018-11-26T13:25:42.101Z,46.50
2018-11-26T13:28:11.916Z,41.75
2018-11-26T13:30:46.356Z,43.10
2018-11-26T13:33:17.164Z,40.70
2018-11-26T13:35:47.098Z,44.25
2018-11-26T13:38:16.129Z,42.80
2018-11-26T13:40:45.081Z,46.58
2018-11-26T13:43:17.175Z,37.98
2018-11-26T13:45:47.476Z,41.20
2018-11-26T13:48:17.907Z,39.08
2018-11-26T13:50:53.650Z,38.17
2018-11-26T13:53:22.674Z,40.88
2018-11-26T13:55:52.146Z,37.65
2018-11-26T13:58:21.726Z,44.48
2018-11-26T14:00:50.767Z,36.93
2018-11-26T14:03:19.741Z,43.52
2018-11-26T14:05:49.616Z,38.42
2018-11-26T14:08:19.993Z,42.53
2018-11-26T14:10:50.856Z,44.85
2018-11-26T14:13:22.305Z,55.63
2018-11-26T14:15:52.492Z,43.55
2018-11-26T14:18:21.780Z,52.17
2018-11-26T14:20:51.074Z,49.25
2018-11-26T14:23:20.183Z,41.75
2018-11-26T14:25:49.575Z,38.90
2018-11-26T14:28:18.748Z,49.90
2018-11-26T14:30:47.711Z,46.20
2018-11-26T14:33:18.021Z,47.13
2018-11-26T14:35:49.017Z,46.28
2018-11-26T14:38:19.958Z,51.08
2018-11-26T14:40:52.499Z,45.78
2018-11-26T14:43:21.588Z,48.50
2018-11-26T14:45:50.620Z,47.33
2018-11-26T14:48:19.967Z,53.78
2018-11-26T14:50:49.178Z,46.15
2018-11-26T14:53:18.377Z,52.58
2018-11-26T14:55:47.509Z,51.60
2018-11-26T14:58:17.517Z,53.08
2018-11-26T15:00:49.517Z,48.73
2018-11-26T15:06:11.124Z,45.88
2018-11-26T15:08:40.364Z,47.78
2018-11-26T15:11:09.741Z,56.42
2018-11-26T15:13:38.805Z,52.08
2018-11-26T15:16:08.019Z,49.85
2018-11-26T15:18:37.007Z,50.43
2018-11-26T15:21:06.281Z,43.08
2018-11-26T15:23:46.842Z,54.10
2018-11-26T15:26:15.767Z,56.73
2018-11-26T15:28:44.920Z,52.03
2018-11-26T15:31:14.026Z,50.50
2018-11-26T15:33:43.369Z,51.08
2018-11-26T15:36:12.978Z,54.33
2018-11-26T15:38:42.375Z,55.78
2018-11-26T15:41:11.531Z,49.08
2018-11-26T15:43:40.832Z,55.98
2018-11-26T15:46:10.146Z,53.20
2018-11-26T15:48:39.532Z,66.33
2018-11-26T15:51:08.664Z,53.23
2018-11-26T15:53:37.540Z,56.37
2018-11-26T15:56:06.661Z,51.30
2018-11-26T15:58:35.627Z,61.10
2018-11-26T16:01:04.714Z,55.20
2018-11-26T16:03:33.798Z,61.80
2018-11-26T16:06:02.889Z,54.18
2018-11-26T16:08:31.854Z,53.92
2018-11-26T16:11:00.751Z,63.50
2018-11-26T16:13:29.789Z,58.65
2018-11-26T16:15:58.955Z,55.80
2018-11-26T16:18:28.114Z,56.08
2018-11-26T16:20:57.011Z,60.43
2018-11-26T16:23:26.020Z,48.90
2018-11-26T16:25:54.968Z,45.92
2018-11-26T16:28:24.462Z,59.30
2018-11-26T16:30:53.538Z,50.70
2018-11-26T16:33:22.510Z,54.20
2018-11-26T16:35:51.458Z,50.65
2018-11-26T16:38:20.507Z,51.05
2018-11-26T16:40:49.553Z,58.52
2018-11-26T16:43:18.591Z,48.63
2018-11-26T16:45:47.524Z,47.13
2018-11-26T16:48:16.500Z,48.23
2018-11-26T16:50:45.522Z,56.60
2018-11-26T16:53:19.239Z,56.35
2018-11-26T16:55:44.066Z,49.90
2018-11-26T16:58:13.684Z,46.33
2018-11-26T17:00:42.855Z,49.98
2018-11-26T17:03:12.006Z,47.00
2018-11-26T17:05:42.331Z,46.48
2018-11-26T17:08:15.691Z,48.90
2018-11-26T17:10:46.409Z,45.17
2018-11-26T17:13:15.515Z,43.05
2018-11-26T17:15:44.482Z,51.55
2018-11-26T17:18:13.490Z,50.90
2018-11-26T17:20:42.384Z,46.00
2018-11-26T17:23:11.273Z,42.50
2018-11-26T17:25:40.243Z,38.98
2018-11-26T17:28:09.193Z,44.45
2018-11-26T17:30:39.154Z,44.88
2018-11-26T17:33:09.848Z,38.80
2018-11-26T17:35:38.658Z,40.48
2018-11-26T17:38:07.844Z,56.02
2018-11-26T17:40:37.356Z,50.80
2018-11-26T17:43:07.287Z,40.60
2018-11-26T17:45:36.204Z,37.05
2018-11-26T17:48:05.510Z,43.08
2018-11-26T17:50:37.856Z,48.10
2018-11-26T17:53:09.339Z,45.63
2018-11-26T17:55:45.448Z,39.92
2018-11-26T17:58:14.290Z,48.33
2018-11-26T18:00:43.448Z,45.17
2018-11-26T18:03:14.226Z,41.05
2018-11-26T18:05:43.224Z,39.08
2018-11-26T18:08:14.774Z,45.75
2018-11-26T18:10:44.071Z,41.13
2018-11-26T18:13:13.369Z,46.48
2018-11-26T18:15:42.374Z,50.33
2018-11-26T18:18:13.584Z,37.63
2018-11-26T18:20:43.133Z,43.63
2018-11-26T18:23:12.571Z,48.63
2018-11-26T18:25:42.030Z,46.70
2018-11-26T18:28:13.889Z,47.53
2018-11-26T18:30:47.009Z,45.03
2018-11-26T18:33:16.051Z,51.60
2018-11-26T18:35:46.679Z,45.78
2018-11-26T18:38:15.829Z,53.87
2018-11-26T18:40:46.603Z,51.63
2018-11-26T18:43:16.320Z,46.95
2018-11-26T18:45:45.405Z,55.88
2018-11-26T18:48:16.056Z,57.78
2018-11-26T18:50:45.349Z,61.35
2018-11-26T18:53:14.483Z,60.67
2018-11-26T18:55:43.899Z,52.98
2018-11-26T18:58:13.371Z,55.45
2018-11-26T19:00:45.560Z,63.60
2018-11-26T19:03:20.756Z,60.55
2018-11-26T19:05:51.703Z,63.30
2018-11-26T19:08:20.759Z,63.05
2018-11-26T19:10:52.553Z,49.27
2018-11-26T19:13:23.392Z,57.62
2018-11-26T19:15:54.250Z,57.48
2018-11-26T19:18:26.968Z,61.70
2018-11-26T19:20:56.078Z,56.13
2018-11-26T19:23:25.097Z,57.53
2018-11-26T19:25:54.556Z,54.88
2018-11-26T19:28:23.610Z,49.45
2018-11-26T19:30:52.724Z,52.48
2018-11-26T19:33:21.680Z,48.48
2018-11-26T19:35:50.708Z,48.60
2018-11-26T19:38:20.158Z,58.52
2018-11-26T19:40:49.619Z,55.25
2018-11-26T19:43:19.329Z,46.42
2018-11-26T19:45:48.866Z,54.23
2018-11-26T19:48:18.299Z,48.40
2018-11-26T19:50:47.865Z,51.92
2018-11-26T19:53:16.880Z,53.15
2018-11-26T19:55:45.972Z,49.03
2018-11-26T19:58:14.900Z,58.10
2018-11-26T20:00:43.699Z,48.10
2018-11-26T20:03:18.704Z,52.98
2018-11-26T20:06:12.145Z,57.98
2018-11-26T20:08:41.856Z,49.42
2018-11-26T20:11:11.559Z,62.83
2018-11-26T20:13:40.883Z,53.83
2018-11-26T20:16:22.211Z,54.83
2018-11-26T20:18:51.372Z,58.80
2018-11-26T20:21:20.564Z,60.78
2018-11-26T20:23:49.435Z,52.75
2018-11-26T20:26:18.431Z,55.98
2018-11-26T20:28:47.415Z,57.98
2018-11-26T20:31:16.285Z,54.25
2018-11-26T20:33:45.291Z,57.98
2018-11-26T20:36:15.225Z,55.23
2018-11-26T20:38:44.373Z,57.27
2018-11-26T20:41:14.071Z,60.52
2018-11-26T20:43:42.947Z,58.35
2018-11-26T20:46:12.272Z,59.77
2018-11-26T20:48:41.596Z,65.35
2018-11-26T20:51:10.503Z,64.47
2018-11-26T20:53:39.690Z,61.42
2018-11-26T20:56:18.393Z,60.67
2018-11-26T20:58:47.726Z,56.13
2018-11-26T21:01:16.761Z,63.83
2018-11-26T21:03:45.648Z,62.80
2018-11-26T21:06:15.013Z,56.55
2018-11-26T21:08:43.972Z,59.27
2018-11-26T21:11:13.197Z,72.00
2018-11-26T21:13:42.093Z,62.58
2018-11-26T21:16:11.048Z,56.90
2018-11-26T21:18:39.931Z,55.55
2018-11-26T21:21:09.101Z,60.58
2018-11-26T21:23:38.002Z,68.60
2018-11-26T21:26:08.250Z,60.45
2018-11-26T21:28:37.139Z,59.35
2018-11-26T21:31:06.455Z,58.87
2018-11-26T21:33:35.361Z,59.95
2018-11-26T21:36:04.214Z,72.85
2018-11-26T21:38:34.202Z,67.17
2018-11-26T21:41:03.167Z,54.53
2018-11-26T21:43:33.081Z,62.35
2018-11-26T21:46:02.616Z,56.25
2018-11-26T21:48:31.525Z,72.32
2018-11-26T21:51:01.629Z,59.90
2018-11-26T21:53:30.490Z,52.62
2018-11-26T21:55:59.418Z,63.78
2018-11-26T21:58:29.768Z,51.68
2018-11-26T22:00:59.863Z,53.60
2018-11-26T22:03:30.607Z,58.78
2018-11-26T22:05:57.671Z,58.15
2018-11-26T22:08:26.490Z,57.10
2018-11-26T22:10:55.823Z,55.60
2018-11-26T22:13:24.968Z,62.83
2018-11-26T22:15:53.858Z,54.25
2018-11-26T22:18:22.747Z,62.53
2018-11-26T22:20:51.631Z,52.58
2018-11-26T22:23:20.538Z,60.35
2018-11-26T22:25:49.377Z,59.13
2018-11-26T22:28:18.267Z,57.43
2018-11-26T22:30:47.199Z,54.45
2018-11-26T22:33:16.093Z,53.15
2018-11-26T22:35:44.945Z,55.35
2018-11-26T22:38:14.380Z,51.58
2018-11-26T22:40:43.227Z,51.75
2018-11-26T22:43:12.063Z,52.58
2018-11-26T22:45:40.956Z,50.85
2018-11-26T22:48:12.858Z,58.40
2018-11-26T22:50:42.927Z,61.00
2018-11-26T22:53:11.904Z,52.38
2018-11-26T22:55:40.913Z,56.80
2018-11-26T22:58:12.532Z,55.65
2018-11-26T23:00:59.165Z,51.30
2018-11-26T23:03:28.174Z,49.53
2018-11-26T23:05:56.975Z,48.05
2018-11-26T23:08:25.768Z,49.48
2018-11-26T23:10:54.584Z,55.23
2018-11-26T23:13:23.432Z,49.45
2018-11-26T23:15:52.259Z,52.10
2018-11-26T23:18:21.098Z,52.38
2018-11-26T23:20:49.896Z,55.10
2018-11-26T23:23:18.821Z,58.08
2018-11-26T23:25:47.919Z,52.45
2018-11-26T23:28:16.763Z,55.20
2018-11-26T23:30:45.545Z,51.35
2018-11-26T23:33:14.420Z,54.38
2018-11-26T23:35:43.287Z,49.50
2018-11-26T23:38:12.161Z,46.98
2018-11-26T23:40:41.061Z,54.03
2018-11-26T23:43:09.873Z,41.55
2018-11-26T23:45:38.700Z,59.20
2018-11-26T23:48:07.584Z,45.60
2018-11-26T23:50:37.157Z,47.50
2018-11-26T23:53:07.166Z,52.88
2018-11-26T23:55:35.961Z,44.25
2018-11-26T23:58:04.905Z,44.05
